createdAt,value
2017-04-17T00:00:11.673Z,0
2017-04-17T00:00:52.565Z,0
2017-04-17T00:01:33.415Z,0
2017-04-17T00:02:14.285Z,0
2017-04-17T00:02:55.157Z,0
2017-04-17T00:03:36.054Z,0
2017-04-17T00:04:16.967Z,0
2017-04-17T00:04:57.835Z,0
2017-04-17T00:05:38.698Z,0
2017-04-17T00:06:19.580Z,0
2017-04-17T00:07:00.455Z,0
2017-04-17T00:07:41.330Z,0
2017-04-17T00:08:22.229Z,0
2017-04-17T00:09:03.108Z,0
2017-04-17T00:09:43.996Z,0
2017-04-17T00:10:24.855Z,0
2017-04-17T00:11:05.735Z,0
2017-04-17T00:11:46.589Z,0
2017-04-17T00:12:27.450Z,0
2017-04-17T00:13:08.303Z,0
2017-04-17T00:13:49.159Z,0
2017-04-17T00:14:30.020Z,0
2017-04-17T00:15:10.851Z,0
2017-04-17T00:15:51.717Z,0
2017-04-17T00:16:32.608Z,0
2017-04-17T00:17:13.532Z,0
2017-04-17T00:17:54.399Z,0
2017-04-17T00:18:35.272Z,0
2017-04-17T00:19:16.149Z,0
2017-04-17T00:19:57.022Z,0
2017-04-17T00:20:37.905Z,0
2017-04-17T00:21:18.783Z,0
2017-04-17T00:21:59.657Z,0
2017-04-17T00:22:40.527Z,0
2017-04-17T00:23:21.415Z,0
2017-04-17T00:24:02.302Z,0
2017-04-17T00:24:43.186Z,0
2017-04-17T00:25:24.042Z,0
2017-04-17T00:26:04.913Z,0
2017-04-17T00:26:45.782Z,0
2017-04-17T00:27:26.666Z,0
2017-04-17T00:28:07.544Z,0
2017-04-17T00:28:48.421Z,0
2017-04-17T00:29:29.319Z,0
2017-04-17T00:30:10.166Z,0
2017-04-17T00:30:51.047Z,0
2017-04-17T00:31:31.925Z,0
2017-04-17T00:32:12.792Z,0
2017-04-17T00:32:53.657Z,0
2017-04-17T00:33:34.528Z,0
2017-04-17T00:34:15.411Z,0
2017-04-17T00:34:56.292Z,0
2017-04-17T00:35:37.901Z,0
2017-04-17T00:36:18.764Z,0
2017-04-17T00:36:59.620Z,0
2017-04-17T00:37:40.482Z,0
2017-04-17T00:38:21.356Z,0
2017-04-17T00:39:02.222Z,0
2017-04-17T00:39:43.108Z,0
2017-04-17T00:40:23.986Z,0
2017-04-17T00:41:04.894Z,0
2017-04-17T00:41:45.824Z,0
2017-04-17T00:42:26.699Z,0
2017-04-17T00:43:07.566Z,0
2017-04-17T00:43:48.447Z,0
2017-04-17T00:44:29.326Z,0
2017-04-17T00:45:10.176Z,0
2017-04-17T00:45:51.035Z,0
2017-04-17T00:46:31.916Z,0
2017-04-17T00:47:12.793Z,0
2017-04-17T00:47:53.649Z,0
2017-04-17T00:48:34.511Z,0
2017-04-17T00:49:15.381Z,0
2017-04-17T00:49:56.266Z,0
2017-04-17T00:50:37.135Z,0
2017-04-17T00:51:18.017Z,0
2017-04-17T00:51:58.940Z,0
2017-04-17T00:52:39.811Z,0
2017-04-17T00:53:20.675Z,0
2017-04-17T00:54:01.559Z,0
2017-04-17T00:54:42.438Z,0
2017-04-17T00:55:23.316Z,0
2017-04-17T00:56:04.197Z,0
2017-04-17T00:56:45.082Z,0
2017-04-17T00:57:25.962Z,0
2017-04-17T00:58:06.821Z,0
2017-04-17T00:58:47.703Z,0
2017-04-17T00:59:28.552Z,0
2017-04-17T01:00:09.411Z,0
2017-04-17T01:00:50.281Z,0
2017-04-17T01:01:31.154Z,0
2017-04-17T01:02:12.026Z,0
2017-04-17T01:02:52.904Z,0
2017-04-17T01:03:33.821Z,0
2017-04-17T01:04:14.650Z,0
2017-04-17T01:04:55.511Z,0
2017-04-17T01:05:36.391Z,0
2017-04-17T01:06:17.238Z,0
2017-04-17T01:06:58.104Z,0
2017-04-17T01:07:38.974Z,0
2017-04-17T01:08:19.843Z,0
2017-04-17T01:09:00.725Z,0
2017-04-17T01:09:41.647Z,0
2017-04-17T01:10:22.483Z,0
2017-04-17T01:11:03.373Z,0
2017-04-17T01:11:44.239Z,0
2017-04-17T01:12:25.082Z,0
2017-04-17T01:13:05.951Z,0
2017-04-17T01:13:46.789Z,0
2017-04-17T01:14:27.645Z,0
2017-04-17T01:15:08.482Z,0
2017-04-17T01:15:49.353Z,0
2017-04-17T01:16:30.220Z,0
2017-04-17T01:17:11.089Z,0
2017-04-17T01:17:51.962Z,0
2017-04-17T01:18:32.840Z,0
2017-04-17T01:19:13.731Z,0
2017-04-17T01:19:54.606Z,0
2017-04-17T01:20:35.481Z,0
2017-04-17T01:21:16.339Z,0
2017-04-17T01:21:57.229Z,0
2017-04-17T01:22:38.086Z,0
2017-04-17T01:23:18.974Z,0
2017-04-17T01:23:59.843Z,0
2017-04-17T01:24:40.705Z,0
2017-04-17T01:25:21.587Z,0
2017-04-17T01:26:02.430Z,0
2017-04-17T01:26:43.305Z,0
2017-04-17T01:27:24.163Z,0
2017-04-17T01:28:05.021Z,0
2017-04-17T01:28:45.867Z,0
2017-04-17T01:29:26.730Z,0
2017-04-17T01:30:07.565Z,0
2017-04-17T01:30:48.431Z,0
2017-04-17T01:31:29.293Z,0
2017-04-17T01:32:10.151Z,0
2017-04-17T01:32:51.019Z,0
2017-04-17T01:33:31.868Z,0
2017-04-17T01:34:12.751Z,0
2017-04-17T01:34:53.629Z,0
2017-04-17T01:35:34.526Z,0
2017-04-17T01:36:15.390Z,0
2017-04-17T01:36:56.228Z,0
2017-04-17T01:37:37.093Z,0
2017-04-17T01:38:17.977Z,0
2017-04-17T01:38:58.843Z,0
2017-04-17T01:39:39.696Z,0
2017-04-17T01:40:20.546Z,0
2017-04-17T01:41:01.418Z,0
2017-04-17T01:41:42.270Z,0
2017-04-17T01:42:23.209Z,0
2017-04-17T01:43:04.052Z,0
2017-04-17T01:43:44.911Z,0
2017-04-17T01:44:25.774Z,0
2017-04-17T01:45:06.648Z,0
2017-04-17T01:45:47.522Z,0
2017-04-17T01:46:28.398Z,0
2017-04-17T01:47:09.268Z,0
2017-04-17T01:47:50.164Z,0
2017-04-17T01:48:31.019Z,0
2017-04-17T01:49:11.882Z,0
2017-04-17T01:49:52.737Z,0
2017-04-17T01:50:33.614Z,0
2017-04-17T01:51:14.480Z,0
2017-04-17T01:51:55.347Z,0
2017-04-17T01:52:36.214Z,0
2017-04-17T01:53:17.093Z,0
2017-04-17T01:53:57.975Z,0
2017-04-17T01:54:38.854Z,0
2017-04-17T01:55:19.720Z,0
2017-04-17T01:56:00.589Z,0
2017-04-17T01:56:41.448Z,0
2017-04-17T01:57:22.342Z,0
2017-04-17T01:58:03.224Z,0
2017-04-17T01:58:44.103Z,0
2017-04-17T01:59:24.965Z,0
2017-04-17T02:00:05.839Z,0
2017-04-17T02:00:46.721Z,0
2017-04-17T02:01:27.595Z,0
2017-04-17T02:02:08.477Z,0
2017-04-17T02:02:49.354Z,0
2017-04-17T02:03:30.238Z,0
2017-04-17T02:04:11.096Z,0
2017-04-17T02:04:51.983Z,0
2017-04-17T02:05:32.866Z,0
2017-04-17T02:06:13.742Z,0
2017-04-17T02:06:54.613Z,0
2017-04-17T02:07:35.493Z,0
2017-04-17T02:08:16.377Z,0
2017-04-17T02:08:57.253Z,0
2017-04-17T02:09:38.126Z,0
2017-04-17T02:10:19.008Z,0
2017-04-17T02:10:59.883Z,0
2017-04-17T02:11:40.753Z,0
2017-04-17T02:12:21.639Z,0
2017-04-17T02:13:02.526Z,0
2017-04-17T02:13:43.404Z,0
2017-04-17T02:14:24.266Z,0
2017-04-17T02:15:05.129Z,0
2017-04-17T02:15:46.016Z,0
2017-04-17T02:16:26.894Z,0
2017-04-17T02:17:07.781Z,0
2017-04-17T02:17:48.621Z,0
2017-04-17T02:18:29.493Z,0
2017-04-17T02:19:10.372Z,0
2017-04-17T02:19:51.251Z,0
2017-04-17T02:20:32.144Z,0
2017-04-17T02:21:13.026Z,0
2017-04-17T02:21:53.887Z,0
2017-04-17T02:22:34.767Z,0
2017-04-17T02:23:15.649Z,0
2017-04-17T02:23:56.528Z,0
2017-04-17T02:24:37.409Z,0
2017-04-17T02:25:18.290Z,0
2017-04-17T02:25:59.158Z,0
2017-04-17T02:26:40.043Z,0
2017-04-17T02:27:20.921Z,0
2017-04-17T02:28:01.794Z,0
2017-04-17T02:28:42.665Z,0
2017-04-17T02:29:23.520Z,0
2017-04-17T02:30:04.402Z,0
2017-04-17T02:30:45.277Z,0
2017-04-17T02:31:26.150Z,0
2017-04-17T02:32:07.031Z,0
2017-04-17T02:32:47.907Z,0
2017-04-17T02:33:28.786Z,0
2017-04-17T02:34:09.668Z,0
2017-04-17T02:34:50.548Z,0
2017-04-17T02:35:31.421Z,0
2017-04-17T02:36:12.308Z,0
2017-04-17T02:36:53.170Z,0
2017-04-17T02:37:34.044Z,0
2017-04-17T02:38:14.923Z,0
2017-04-17T02:38:55.802Z,0
2017-04-17T02:39:36.671Z,0
2017-04-17T02:40:17.549Z,0
2017-04-17T02:40:58.436Z,0
2017-04-17T02:41:39.301Z,0
2017-04-17T02:42:20.181Z,0
2017-04-17T02:43:01.061Z,0
2017-04-17T02:43:41.944Z,0
2017-04-17T02:44:22.822Z,0
2017-04-17T02:45:03.694Z,0
2017-04-17T02:45:44.593Z,0
2017-04-17T02:46:25.470Z,0
2017-04-17T02:47:06.365Z,0
2017-04-17T02:47:47.273Z,0
2017-04-17T02:48:28.129Z,0
2017-04-17T02:49:09.010Z,0
2017-04-17T02:49:49.896Z,0
2017-04-17T02:50:30.771Z,0
2017-04-17T02:51:11.634Z,0
2017-04-17T02:51:52.516Z,0
2017-04-17T02:52:33.387Z,0
2017-04-17T02:53:14.259Z,0
2017-04-17T02:53:55.118Z,0
2017-04-17T02:54:35.980Z,0
2017-04-17T02:55:16.860Z,0
2017-04-17T02:55:57.740Z,0
2017-04-17T02:56:38.633Z,0
2017-04-17T02:57:19.491Z,0
2017-04-17T02:59:38.724Z,0
2017-04-17T03:00:19.609Z,0
2017-04-17T03:01:00.518Z,0
2017-04-17T03:01:41.399Z,0
2017-04-17T03:02:22.287Z,0
2017-04-17T03:03:03.141Z,0
2017-04-17T03:03:44.006Z,0
2017-04-17T03:04:24.873Z,0
2017-04-17T03:05:05.744Z,0
2017-04-17T03:05:46.606Z,0
2017-04-17T03:06:27.484Z,0
2017-04-17T03:07:08.356Z,0
2017-04-17T03:07:49.216Z,0
2017-04-17T03:08:30.077Z,0
2017-04-17T03:09:10.969Z,0
2017-04-17T03:09:51.869Z,0
2017-04-17T03:11:50.613Z,0
2017-04-17T03:12:31.487Z,0
2017-04-17T03:13:12.355Z,0
2017-04-17T03:13:53.229Z,0
2017-04-17T03:14:34.117Z,0
2017-04-17T03:15:14.999Z,0
2017-04-17T03:15:55.874Z,0
2017-04-17T03:16:36.737Z,0
2017-04-17T03:17:17.599Z,0
2017-04-17T03:17:58.463Z,0
2017-04-17T03:18:39.334Z,0
2017-04-17T03:19:20.197Z,0
2017-04-17T03:20:01.076Z,0
2017-04-17T03:20:41.956Z,0
2017-04-17T03:21:22.826Z,0
2017-04-17T03:22:03.702Z,0
2017-04-17T03:22:44.561Z,0
2017-04-17T03:23:25.463Z,0
2017-04-17T03:24:06.329Z,0
2017-04-17T03:24:47.206Z,0
2017-04-17T03:25:28.070Z,0
2017-04-17T03:27:42.673Z,0
2017-04-17T03:28:23.531Z,0
2017-04-17T03:29:04.412Z,0
2017-04-17T03:29:45.303Z,0
2017-04-17T03:30:26.179Z,0
2017-04-17T03:31:07.063Z,0
2017-04-17T03:31:47.946Z,0
2017-04-17T03:32:28.808Z,0
2017-04-17T03:33:09.694Z,0
2017-04-17T03:33:50.572Z,0
2017-04-17T03:34:31.469Z,0
2017-04-17T03:35:12.331Z,0
2017-04-17T03:35:53.214Z,0
2017-04-17T03:36:34.095Z,0
2017-04-17T03:37:14.958Z,0
2017-04-17T03:37:55.825Z,0
2017-04-17T03:38:36.706Z,0
2017-04-17T03:39:17.586Z,0
2017-04-17T03:39:58.450Z,0
2017-04-17T03:40:39.328Z,0
2017-04-17T03:41:20.204Z,0
2017-04-17T03:42:01.095Z,0
2017-04-17T03:42:41.960Z,0
2017-04-17T03:43:22.822Z,0
2017-04-17T03:44:03.694Z,0
2017-04-17T03:44:44.593Z,0
2017-04-17T03:45:25.459Z,0
2017-04-17T03:46:06.338Z,0
2017-04-17T03:46:47.217Z,0
2017-04-17T03:47:28.068Z,0
2017-04-17T03:48:08.945Z,0
2017-04-17T03:48:49.826Z,0
2017-04-17T03:49:30.708Z,0
2017-04-17T03:50:11.567Z,0
2017-04-17T03:50:52.432Z,0
2017-04-17T03:51:33.304Z,0
2017-04-17T03:52:14.170Z,0
2017-04-17T03:52:55.069Z,0
2017-04-17T03:53:35.943Z,0
2017-04-17T03:54:16.815Z,0
2017-04-17T03:54:57.696Z,0
2017-04-17T03:55:39.372Z,0
2017-04-17T03:56:20.249Z,0
2017-04-17T03:57:01.180Z,0
2017-04-17T03:57:42.059Z,0
2017-04-17T03:58:22.921Z,0
2017-04-17T03:59:03.791Z,0
2017-04-17T03:59:44.680Z,0
2017-04-17T04:00:25.552Z,0
2017-04-17T04:01:06.432Z,0
2017-04-17T04:01:47.310Z,0
2017-04-17T04:02:28.168Z,0
2017-04-17T04:03:09.040Z,0
2017-04-17T04:03:49.920Z,0
2017-04-17T04:04:30.788Z,0
2017-04-17T04:05:11.661Z,0
2017-04-17T04:05:52.550Z,0
2017-04-17T04:06:33.433Z,0
2017-04-17T04:07:14.299Z,0
2017-04-17T04:07:55.167Z,0
2017-04-17T04:08:36.035Z,0
2017-04-17T04:09:16.902Z,5
2017-04-17T04:09:57.775Z,5
2017-04-17T04:10:38.657Z,5
2017-04-17T04:11:19.540Z,5
2017-04-17T04:12:00.442Z,5
2017-04-17T04:12:41.312Z,5
2017-04-17T04:13:22.169Z,5
2017-04-17T04:14:03.022Z,5
2017-04-17T04:14:43.899Z,10
2017-04-17T04:15:24.767Z,10
2017-04-17T04:16:05.645Z,10
2017-04-17T04:16:46.525Z,10
2017-04-17T04:17:27.399Z,10
2017-04-17T04:18:08.272Z,10
2017-04-17T04:18:49.152Z,10
2017-04-17T04:19:30.015Z,15
2017-04-17T04:20:10.897Z,15
2017-04-17T04:20:51.775Z,15
2017-04-17T04:21:32.654Z,15
2017-04-17T04:22:13.522Z,20
2017-04-17T04:22:54.399Z,20
2017-04-17T04:23:35.282Z,20
2017-04-17T04:24:16.168Z,15
2017-04-17T04:24:57.049Z,15
2017-04-17T04:25:37.926Z,20
2017-04-17T04:26:18.800Z,20
2017-04-17T04:26:59.681Z,20
2017-04-17T04:27:40.558Z,20
2017-04-17T04:28:21.429Z,25
2017-04-17T04:29:02.302Z,25
2017-04-17T04:29:43.181Z,25
2017-04-17T04:30:24.043Z,30
2017-04-17T04:31:04.907Z,30
2017-04-17T04:31:45.788Z,25
2017-04-17T04:32:26.661Z,30
2017-04-17T04:33:07.531Z,30
2017-04-17T04:33:48.405Z,30
2017-04-17T04:34:29.288Z,35
2017-04-17T04:35:10.177Z,35
2017-04-17T04:35:51.055Z,35
2017-04-17T04:36:31.937Z,35
2017-04-17T04:37:12.823Z,40
2017-04-17T04:37:53.708Z,35
2017-04-17T04:38:34.616Z,35
2017-04-17T04:39:15.473Z,40
2017-04-17T04:39:56.340Z,45
2017-04-17T04:40:37.214Z,45
2017-04-17T04:41:18.084Z,45
2017-04-17T04:41:58.956Z,40
2017-04-17T04:42:39.837Z,45
2017-04-17T04:43:20.722Z,50
2017-04-17T04:44:01.586Z,50
2017-04-17T04:44:42.450Z,45
2017-04-17T04:45:23.323Z,50
2017-04-17T04:46:04.205Z,55
2017-04-17T04:46:45.088Z,50
2017-04-17T04:47:25.970Z,50
2017-04-17T04:48:06.854Z,55
2017-04-17T04:48:47.741Z,65
2017-04-17T04:49:28.617Z,65
2017-04-17T04:50:09.482Z,50
2017-04-17T04:50:50.365Z,60
2017-04-17T04:51:31.246Z,65
2017-04-17T04:52:12.154Z,55
2017-04-17T04:52:53.034Z,60
2017-04-17T04:53:33.894Z,55
2017-04-17T04:54:14.778Z,60
2017-04-17T04:54:55.660Z,55
2017-04-17T04:55:36.543Z,55
2017-04-17T04:56:17.420Z,55
2017-04-17T04:56:58.288Z,50
2017-04-17T04:57:39.171Z,55
2017-04-17T04:58:20.041Z,65
2017-04-17T04:59:00.911Z,65
2017-04-17T04:59:41.792Z,70
2017-04-17T05:00:22.674Z,80
2017-04-17T05:01:03.565Z,85
2017-04-17T05:01:44.451Z,80
2017-04-17T05:02:25.324Z,60
2017-04-17T05:03:06.213Z,50
2017-04-17T05:03:47.090Z,45
2017-04-17T05:04:27.970Z,35
2017-04-17T05:05:08.840Z,40
2017-04-17T05:05:50.545Z,45
2017-04-17T05:06:31.442Z,40
2017-04-17T05:07:12.316Z,45
2017-04-17T05:07:53.194Z,50
2017-04-17T05:08:34.094Z,65
2017-04-17T05:09:14.968Z,70
2017-04-17T05:09:55.844Z,80
2017-04-17T05:10:36.722Z,80
2017-04-17T05:11:17.600Z,90
2017-04-17T05:11:58.480Z,100
2017-04-17T05:12:39.362Z,105
2017-04-17T05:13:20.229Z,70
2017-04-17T05:14:01.107Z,50
2017-04-17T05:14:41.996Z,50
2017-04-17T05:15:22.869Z,65
2017-04-17T05:16:03.730Z,85
2017-04-17T05:16:44.595Z,85
2017-04-17T05:17:25.458Z,70
2017-04-17T05:18:06.334Z,65
2017-04-17T05:18:47.216Z,70
2017-04-17T05:19:28.098Z,60
2017-04-17T05:20:08.976Z,75
2017-04-17T05:20:49.865Z,95
2017-04-17T05:21:30.749Z,85
2017-04-17T05:22:11.628Z,70
2017-04-17T05:22:52.496Z,75
2017-04-17T05:23:33.377Z,75
2017-04-17T05:24:14.256Z,80
2017-04-17T05:24:55.141Z,75
2017-04-17T05:25:36.030Z,85
2017-04-17T05:26:16.889Z,70
2017-04-17T05:26:57.763Z,75
2017-04-17T05:27:38.629Z,75
2017-04-17T05:28:19.496Z,80
2017-04-17T05:29:00.368Z,100
2017-04-17T05:29:41.256Z,115
2017-04-17T05:30:22.136Z,100
2017-04-17T05:31:03.020Z,75
2017-04-17T05:31:43.901Z,75
2017-04-17T05:32:24.793Z,80
2017-04-17T05:33:05.656Z,80
2017-04-17T05:33:46.523Z,100
2017-04-17T05:34:27.394Z,75
2017-04-17T05:35:08.319Z,70
2017-04-17T05:35:49.204Z,55
2017-04-17T05:36:30.080Z,65
2017-04-17T05:37:10.944Z,85
2017-04-17T05:37:51.820Z,70
2017-04-17T05:38:32.699Z,70
2017-04-17T05:39:13.566Z,100
2017-04-17T05:39:54.447Z,100
2017-04-17T05:40:35.332Z,90
2017-04-17T05:41:16.212Z,90
2017-04-17T05:41:57.094Z,125
2017-04-17T05:42:37.961Z,170
2017-04-17T05:43:18.834Z,175
2017-04-17T05:43:59.706Z,140
2017-04-17T05:44:40.563Z,85
2017-04-17T05:45:21.435Z,80
2017-04-17T05:46:02.318Z,140
2017-04-17T05:46:43.237Z,135
2017-04-17T05:47:24.050Z,130
2017-04-17T05:48:04.961Z,140
2017-04-17T05:48:45.833Z,145
2017-04-17T05:49:26.708Z,135
2017-04-17T05:50:07.601Z,130
2017-04-17T05:50:48.485Z,115
2017-04-17T05:51:29.367Z,145
2017-04-17T05:52:10.250Z,150
2017-04-17T05:52:51.156Z,140
2017-04-17T05:53:32.015Z,190
2017-04-17T05:54:12.895Z,180
2017-04-17T05:54:53.759Z,120
2017-04-17T05:55:34.638Z,115
2017-04-17T05:56:15.522Z,160
2017-04-17T05:56:56.378Z,135
2017-04-17T05:57:37.260Z,120
2017-04-17T05:58:18.125Z,135
2017-04-17T05:58:59.003Z,190
2017-04-17T05:59:39.865Z,210
2017-04-17T06:00:20.741Z,175
2017-04-17T06:01:01.623Z,200
2017-04-17T06:01:42.485Z,205
2017-04-17T06:02:23.367Z,190
2017-04-17T06:03:04.283Z,240
2017-04-17T06:03:45.165Z,190
2017-04-17T06:04:26.046Z,165
2017-04-17T06:05:06.909Z,195
2017-04-17T06:05:47.787Z,160
2017-04-17T06:06:28.646Z,180
2017-04-17T06:07:09.524Z,180
2017-04-17T06:07:50.409Z,160
2017-04-17T06:08:31.285Z,160
2017-04-17T06:09:12.151Z,185
2017-04-17T06:09:53.012Z,190
2017-04-17T06:10:33.891Z,170
2017-04-17T06:11:14.763Z,165
2017-04-17T06:11:55.630Z,160
2017-04-17T06:12:36.494Z,160
2017-04-17T06:13:17.397Z,165
2017-04-17T06:13:58.260Z,160
2017-04-17T06:14:39.150Z,165
2017-04-17T06:15:20.005Z,180
2017-04-17T06:16:00.876Z,190
2017-04-17T06:16:41.758Z,165
2017-04-17T06:17:22.646Z,155
2017-04-17T06:18:03.515Z,210
2017-04-17T06:18:44.383Z,225
2017-04-17T06:19:25.234Z,180
2017-04-17T06:20:06.109Z,145
2017-04-17T06:20:46.970Z,150
2017-04-17T06:21:27.831Z,155
2017-04-17T06:22:08.711Z,185
2017-04-17T06:22:49.606Z,225
2017-04-17T06:23:30.465Z,220
2017-04-17T06:24:11.333Z,185
2017-04-17T06:24:52.201Z,170
2017-04-17T06:25:33.071Z,165
2017-04-17T06:26:13.951Z,165
2017-04-17T06:26:54.818Z,165
2017-04-17T06:27:35.700Z,160
2017-04-17T06:28:16.574Z,165
2017-04-17T06:28:57.437Z,165
2017-04-17T06:29:38.308Z,165
2017-04-17T06:30:19.174Z,170
2017-04-17T06:31:00.041Z,165
2017-04-17T06:31:40.920Z,160
2017-04-17T06:32:21.809Z,160
2017-04-17T06:33:02.687Z,165
2017-04-17T06:33:43.562Z,165
2017-04-17T06:34:24.424Z,165
2017-04-17T06:35:05.290Z,165
2017-04-17T06:35:46.173Z,175
2017-04-17T06:36:27.079Z,175
2017-04-17T06:37:07.938Z,165
2017-04-17T06:37:48.815Z,165
2017-04-17T06:38:29.671Z,170
2017-04-17T06:39:10.541Z,170
2017-04-17T06:39:51.416Z,170
2017-04-17T06:40:32.348Z,170
2017-04-17T06:41:13.231Z,175
2017-04-17T06:41:54.118Z,185
2017-04-17T06:42:35.015Z,175
2017-04-17T06:43:15.884Z,190
2017-04-17T06:43:56.776Z,230
2017-04-17T06:44:37.656Z,215
2017-04-17T06:45:18.530Z,200
2017-04-17T06:45:59.405Z,205
2017-04-17T06:46:40.277Z,205
2017-04-17T06:47:21.166Z,210
2017-04-17T06:48:02.054Z,210
2017-04-17T06:48:42.937Z,205
2017-04-17T06:49:23.806Z,210
2017-04-17T06:50:04.687Z,210
2017-04-17T06:50:45.604Z,195
2017-04-17T06:51:26.486Z,205
2017-04-17T06:52:07.360Z,210
2017-04-17T06:52:48.250Z,215
2017-04-17T06:53:29.131Z,225
2017-04-17T06:54:10.012Z,220
2017-04-17T06:54:50.887Z,205
2017-04-17T06:55:31.760Z,190
2017-04-17T06:56:12.644Z,195
2017-04-17T06:56:53.525Z,205
2017-04-17T06:57:34.405Z,205
2017-04-17T06:58:15.273Z,200
2017-04-17T06:58:56.177Z,190
2017-04-17T06:59:37.056Z,190
2017-04-17T07:00:17.931Z,195
2017-04-17T07:00:58.802Z,200
2017-04-17T07:01:39.683Z,200
2017-04-17T07:02:20.567Z,215
2017-04-17T07:03:01.441Z,225
2017-04-17T07:03:42.317Z,235
2017-04-17T07:04:23.192Z,255
2017-04-17T07:05:04.075Z,255
2017-04-17T07:05:44.954Z,250
2017-04-17T07:06:25.837Z,245
2017-04-17T07:07:06.748Z,235
2017-04-17T07:07:47.635Z,245
2017-04-17T07:08:28.530Z,300
2017-04-17T07:09:09.395Z,345
2017-04-17T07:09:50.303Z,335
2017-04-17T07:10:31.170Z,285
2017-04-17T07:11:12.050Z,245
2017-04-17T07:11:52.932Z,210
2017-04-17T07:12:33.813Z,230
2017-04-17T07:13:14.696Z,235
2017-04-17T07:13:55.587Z,255
2017-04-17T07:14:36.487Z,315
2017-04-17T07:15:17.340Z,380
2017-04-17T07:15:58.210Z,385
2017-04-17T07:16:39.083Z,340
2017-04-17T07:17:19.968Z,280
2017-04-17T07:18:00.841Z,225
2017-04-17T07:18:41.717Z,275
2017-04-17T07:19:22.586Z,325
2017-04-17T07:20:03.487Z,365
2017-04-17T07:20:44.409Z,400
2017-04-17T07:21:25.292Z,405
2017-04-17T07:22:06.181Z,395
2017-04-17T07:22:47.079Z,360
2017-04-17T07:23:27.951Z,315
2017-04-17T07:24:08.823Z,230
2017-04-17T07:24:49.705Z,180
2017-04-17T07:25:30.576Z,125
2017-04-17T07:26:11.451Z,120
2017-04-17T07:26:52.330Z,145
2017-04-17T07:27:33.200Z,210
2017-04-17T07:28:14.081Z,245
2017-04-17T07:28:54.966Z,250
2017-04-17T07:29:35.846Z,230
2017-04-17T07:30:16.759Z,205
2017-04-17T07:30:57.643Z,205
2017-04-17T07:31:38.531Z,240
2017-04-17T07:32:19.406Z,270
2017-04-17T07:33:00.277Z,290
2017-04-17T07:33:41.160Z,305
2017-04-17T07:34:22.041Z,305
2017-04-17T07:35:02.920Z,325
2017-04-17T07:35:43.803Z,345
2017-04-17T07:36:24.698Z,335
2017-04-17T07:37:05.585Z,325
2017-04-17T07:37:46.459Z,345
2017-04-17T07:38:27.319Z,360
2017-04-17T07:39:08.213Z,385
2017-04-17T07:39:49.098Z,410
2017-04-17T07:40:29.982Z,410
2017-04-17T07:41:10.859Z,435
2017-04-17T07:41:51.718Z,635
2017-04-17T07:42:32.602Z,445
2017-04-17T07:43:13.501Z,455
2017-04-17T07:43:54.365Z,575
2017-04-17T07:44:35.244Z,845
2017-04-17T07:45:16.100Z,590
2017-04-17T07:45:56.996Z,425
2017-04-17T07:46:37.885Z,655
2017-04-17T07:47:18.754Z,670
2017-04-17T07:47:59.621Z,400
2017-04-17T07:48:40.516Z,500
2017-04-17T07:49:21.400Z,275
2017-04-17T07:50:02.282Z,345
2017-04-17T07:50:43.156Z,270
2017-04-17T07:51:24.034Z,1790
2017-04-17T07:52:04.903Z,550
2017-04-17T07:52:45.824Z,1700
2017-04-17T07:53:26.824Z,1800
2017-04-17T07:54:07.700Z,1075
2017-04-17T07:54:48.584Z,1300
2017-04-17T07:55:29.469Z,685
2017-04-17T07:56:10.349Z,530
2017-04-17T07:56:51.280Z,635
2017-04-17T07:57:32.147Z,1010
2017-04-17T07:58:13.022Z,1345
2017-04-17T07:58:53.892Z,1905
2017-04-17T07:59:34.783Z,1670
2017-04-17T08:00:15.656Z,1725
2017-04-17T08:00:56.531Z,1785
2017-04-17T08:01:37.416Z,1945
2017-04-17T08:02:18.298Z,2055
2017-04-17T08:02:59.201Z,1985
2017-04-17T08:03:40.087Z,2045
2017-04-17T08:04:20.970Z,2120
2017-04-17T08:05:01.853Z,2160
2017-04-17T08:05:42.739Z,2110
2017-04-17T08:06:23.616Z,2040
2017-04-17T08:07:04.506Z,790
2017-04-17T08:07:45.408Z,320
2017-04-17T08:08:26.289Z,325
2017-04-17T08:09:07.164Z,395
2017-04-17T08:09:48.264Z,1570
2017-04-17T08:10:29.632Z,275
2017-04-17T08:11:11.023Z,205
2017-04-17T08:11:52.424Z,205
2017-04-17T08:12:33.813Z,255
2017-04-17T08:13:15.188Z,300
2017-04-17T08:13:56.625Z,390
2017-04-17T08:14:37.965Z,1580
2017-04-17T08:15:19.369Z,960
2017-04-17T08:16:00.750Z,795
2017-04-17T08:16:42.070Z,1155
2017-04-17T08:17:23.502Z,1925
2017-04-17T08:18:04.842Z,1995
2017-04-17T08:18:46.244Z,1775
2017-04-17T08:19:27.643Z,700
2017-04-17T08:20:09.043Z,425
2017-04-17T08:20:50.423Z,355
2017-04-17T08:21:31.800Z,395
2017-04-17T08:22:13.156Z,450
2017-04-17T08:22:54.536Z,760
2017-04-17T08:23:35.907Z,875
2017-04-17T08:24:17.296Z,515
2017-04-17T08:24:58.635Z,500
2017-04-17T08:25:40.063Z,580
2017-04-17T08:26:21.451Z,550
2017-04-17T08:27:02.858Z,490
2017-04-17T08:27:44.181Z,405
2017-04-17T08:28:25.451Z,405
2017-04-17T08:29:06.708Z,215
2017-04-17T08:29:47.923Z,210
2017-04-17T08:30:29.109Z,235
2017-04-17T08:31:10.332Z,340
2017-04-17T08:31:51.551Z,395
2017-04-17T08:32:32.907Z,1095
2017-04-17T08:33:14.255Z,705
2017-04-17T08:33:55.577Z,255
2017-04-17T08:34:36.902Z,275
2017-04-17T08:35:18.174Z,380
2017-04-17T08:35:59.391Z,1760
2017-04-17T08:36:40.605Z,785
2017-04-17T08:37:21.752Z,760
2017-04-17T08:38:03.003Z,365
2017-04-17T08:38:44.258Z,395
2017-04-17T08:39:25.450Z,2010
2017-04-17T08:40:06.668Z,2420
2017-04-17T08:40:47.721Z,1890
2017-04-17T08:41:28.777Z,1895
2017-04-17T08:42:09.836Z,2035
2017-04-17T08:42:50.993Z,2030
2017-04-17T08:43:32.020Z,1140
2017-04-17T08:44:13.036Z,1850
2017-04-17T08:44:54.070Z,1950
2017-04-17T08:45:35.088Z,1335
2017-04-17T08:46:16.089Z,1500
2017-04-17T08:46:57.111Z,1935
2017-04-17T08:47:38.359Z,990
2017-04-17T08:49:53.155Z,865
2017-04-17T08:50:34.240Z,2425
2017-04-17T08:51:15.276Z,1375
2017-04-17T08:51:56.339Z,505
2017-04-17T08:52:37.341Z,2065
2017-04-17T08:53:18.370Z,1625
2017-04-17T08:53:59.422Z,445
2017-04-17T08:54:40.433Z,385
2017-04-17T08:55:21.516Z,1955
2017-04-17T08:56:02.521Z,735
2017-04-17T08:56:43.520Z,550
2017-04-17T08:57:24.477Z,2235
2017-04-17T08:58:05.401Z,495
2017-04-17T08:58:46.311Z,330
2017-04-17T08:59:27.203Z,315
2017-04-17T09:00:08.085Z,310
2017-04-17T09:00:48.969Z,335
2017-04-17T09:01:29.855Z,1175
2017-04-17T09:02:10.761Z,1115
2017-04-17T09:04:30.018Z,445
2017-04-17T09:05:10.907Z,430
2017-04-17T09:05:51.792Z,385
2017-04-17T09:06:32.746Z,380
2017-04-17T09:07:13.639Z,345
2017-04-17T09:07:54.503Z,345
2017-04-17T09:08:35.382Z,315
2017-04-17T09:09:16.252Z,290
2017-04-17T09:09:57.130Z,295
2017-04-17T09:10:38.027Z,310
2017-04-17T09:11:18.882Z,325
2017-04-17T09:11:59.746Z,310
2017-04-17T09:12:40.643Z,315
2017-04-17T09:13:21.536Z,330
2017-04-17T09:14:02.419Z,350
2017-04-17T09:14:43.292Z,380
2017-04-17T09:15:24.169Z,370
2017-04-17T09:16:05.071Z,355
2017-04-17T09:16:45.947Z,350
2017-04-17T09:17:26.828Z,345
2017-04-17T09:18:07.693Z,350
2017-04-17T09:18:48.565Z,375
2017-04-17T09:19:29.454Z,445
2017-04-17T09:20:10.330Z,410
2017-04-17T09:20:51.200Z,425
2017-04-17T09:21:32.081Z,415
2017-04-17T09:22:12.969Z,420
2017-04-17T09:22:53.845Z,410
2017-04-17T09:23:34.734Z,360
2017-04-17T09:24:15.609Z,345
2017-04-17T09:24:56.489Z,365
2017-04-17T09:25:37.359Z,400
2017-04-17T09:26:18.263Z,450
2017-04-17T09:26:59.151Z,585
2017-04-17T09:27:40.037Z,580
2017-04-17T09:28:20.927Z,400
2017-04-17T09:29:01.804Z,565
2017-04-17T09:29:42.673Z,345
2017-04-17T09:30:23.549Z,355
2017-04-17T09:31:04.430Z,320
2017-04-17T09:31:45.321Z,340
2017-04-17T09:32:26.200Z,345
2017-04-17T09:33:07.076Z,340
2017-04-17T09:33:47.966Z,350
2017-04-17T09:34:28.848Z,375
2017-04-17T09:35:09.745Z,410
2017-04-17T09:35:50.621Z,430
2017-04-17T09:36:31.477Z,465
2017-04-17T09:37:12.355Z,450
2017-04-17T09:37:53.236Z,520
2017-04-17T09:38:34.115Z,1335
2017-04-17T09:39:15.709Z,585
2017-04-17T09:39:56.605Z,395
2017-04-17T09:40:37.492Z,380
2017-04-17T09:41:18.370Z,1875
2017-04-17T09:41:59.247Z,1700
2017-04-17T09:42:40.140Z,1610
2017-04-17T09:43:21.046Z,1570
2017-04-17T09:44:01.904Z,1580
2017-04-17T09:44:42.783Z,1630
2017-04-17T09:45:23.671Z,1630
2017-04-17T09:46:04.561Z,1770
2017-04-17T09:46:45.435Z,1890
2017-04-17T09:47:26.317Z,1650
2017-04-17T09:48:07.203Z,2145
2017-04-17T09:48:48.080Z,1425
2017-04-17T09:49:28.963Z,380